Accueil
METAR-TAF:

METAR-TAF

Aéroports :

Base aérienne

Niederstetten, Allemagne

latitude: 49-24N, longitude: 009-58E, altitude: 468 m

Observation

Le bulletin a été fait il y a 35 minutes, à 16:20 UTC
Vent 10 kt de ouest/sud-ouest
Température 18°C
Humidité 56%
Pression 1010 hPa
Visibilité 10 km ou plus
Quelques nuages à une hauteur de 3000 ft, Cumulonimbus.
Nuages épars à une hauteur de 8000 ft

METAR: ETHN 191620Z 25010KT 9999 FEW030CB SCT080 18/09 Q1010 BLU+

Heure: 18:55 (16:55 UTC)


TAF: absent

Observations et prévisions météorologiques de plus de 4000 aéroports (messages METAR et TAF).

Les stations disponibles sont représentées par des disques jaunes et rouges sur la carte.

Passer la souris dessus pour voir le nom de la station.

Cliquer dessus pour voir les observations et prévisions météorologiques.

Pour changer de carte: cliquez sur les boutons verts avec une croix noire pour zoomer, sur le bouton vert avec un tiret pour effectuer un zoom arrière, ou sur les flèches vertes pour les cartes adjacentes.


METAR-TAF: